Time;durP1;ratioP1;P1;durP2;ratioP2;P2;SDS_P1;SDS_P2;PMS_P1;PMS_P2;Temp;Humidity;BMP_temperature;BMP_pressure;BME280_temperature;BME280_humidity;BME280_pressure;Samples;Min_cycle;Max_cycle;Signal;HPM_P1;HPM_P2
2023/08/26 00:00:40;;;;;;;15.45;10.52;;;17.10;99.90;;;;;;5136494;27;20039;-78
2023/08/26 00:03:06;;;;;;;16.42;10.68;;;17.10;99.90;;;;;;5137216;27;20053;-76
2023/08/26 00:05:31;;;;;;;15.18;10.27;;;17.00;99.90;;;;;;5155099;27;20031;-76
2023/08/26 00:07:57;;;;;;;15.57;10.00;;;17.00;99.90;;;;;;5155366;27;20099;-76
2023/08/26 00:10:23;;;;;;;16.27;10.70;;;16.90;99.90;;;;;;5155400;27;20046;-76
2023/08/26 00:12:48;;;;;;;15.10;9.80;;;16.90;99.90;;;;;;5136474;27;20075;-76
2023/08/26 00:15:14;;;;;;;17.58;11.15;;;16.80;99.90;;;;;;5154885;27;20169;-76
2023/08/26 00:17:40;;;;;;;18.40;10.40;;;16.70;99.90;;;;;;5141823;27;20050;-76
2023/08/26 00:20:08;;;;;;;16.05;10.40;;;16.80;99.90;;;;;;5133813;27;20035;-76
2023/08/26 00:22:34;;;;;;;18.60;10.35;;;16.80;99.90;;;;;;5115904;28;20043;-75
2023/08/26 00:25:00;;;;;;;16.48;10.13;;;16.70;99.90;;;;;;5134180;27;20039;-75
2023/08/26 00:27:26;;;;;;;15.27;9.88;;;16.70;99.90;;;;;;5133992;28;20172;-75
2023/08/26 00:29:51;;;;;;;14.32;9.63;;;16.60;99.90;;;;;;5133738;28;20380;-76
2023/08/26 00:32:17;;;;;;;15.80;9.95;;;16.60;99.90;;;;;;5134424;28;20050;-76
2023/08/26 00:34:46;;;;;;;13.63;9.23;;;16.60;99.90;;;;;;5134358;28;20035;-77
2023/08/26 00:37:14;;;;;;;13.15;9.80;;;16.50;99.90;;;;;;5134395;27;20039;-75
2023/08/26 00:39:40;;;;;;;16.60;9.82;;;16.50;99.90;;;;;;5154915;27;20043;-77
2023/08/26 00:42:06;;;;;;;17.33;10.38;;;16.50;99.90;;;;;;5155101;27;20055;-76
2023/08/26 00:44:31;;;;;;;13.43;9.35;;;16.40;99.90;;;;;;5154778;27;20082;-76
2023/08/26 00:46:59;;;;;;;16.13;9.73;;;16.40;99.90;;;;;;5155242;27;20348;-76
2023/08/26 00:49:25;;;;;;;14.82;9.50;;;16.40;99.90;;;;;;5159158;27;20057;-76
2023/08/26 00:51:51;;;;;;;13.95;8.75;;;16.40;99.90;;;;;;5140622;27;20129;-77
2023/08/26 00:54:17;;;;;;;13.68;9.30;;;16.40;99.90;;;;;;5159231;27;20084;-77
2023/08/26 00:56:43;;;;;;;15.88;9.73;;;16.40;99.90;;;;;;5158388;27;20478;-76
2023/08/26 00:59:10;;;;;;;13.27;9.05;;;16.40;99.90;;;;;;5158256;27;20038;-75
2023/08/26 01:01:36;;;;;;;16.60;9.57;;;16.40;99.90;;;;;;5158312;27;20129;-75
2023/08/26 01:04:02;;;;;;;14.40;9.85;;;16.40;99.90;;;;;;5158871;27;20054;-75
2023/08/26 01:06:28;;;;;;;13.25;8.70;;;16.40;99.90;;;;;;5158816;27;20093;-76
2023/08/26 01:08:54;;;;;;;12.45;8.27;;;16.40;99.90;;;;;;5158774;27;20082;-74
2023/08/26 01:11:20;;;;;;;12.25;8.25;;;16.40;99.90;;;;;;5158540;27;20046;-75
2023/08/26 01:14:11;;;;;;;12.35;8.80;;;16.40;99.90;;;;;;5158003;27;20114;-74
2023/08/26 01:16:41;;;;;;;10.73;7.97;;;16.40;99.90;;;;;;5154964;27;20054;-75
2023/08/26 01:19:28;;;;;;;13.95;8.77;;;16.30;99.90;;;;;;5137888;27;20050;-76
2023/08/26 01:21:58;;;;;;;12.50;7.43;;;16.20;99.90;;;;;;5137874;27;20046;-77
2023/08/26 01:24:25;;;;;;;12.80;7.97;;;16.20;99.90;;;;;;5137704;27;20043;-77
2023/08/26 01:26:52;;;;;;;10.93;7.13;;;16.10;99.90;;;;;;5137486;27;20057;-77
2023/08/26 01:29:18;;;;;;;10.93;6.18;;;16.10;99.90;;;;;;5137637;27;20059;-77
2023/08/26 01:31:47;;;;;;;10.90;7.53;;;16.10;99.90;;;;;;5101768;27;20497;-76
2023/08/26 01:34:20;;;;;;;11.77;6.95;;;15.90;99.90;;;;;;5136654;27;20492;-74
2023/08/26 01:36:47;;;;;;;11.48;6.80;;;16.00;99.90;;;;;;5136799;27;20056;-75
2023/08/26 01:39:16;;;;;;;9.98;6.30;;;15.90;99.90;;;;;;5154709;27;20085;-75
2023/08/26 01:41:51;;;;;;;11.68;6.63;;;15.90;99.90;;;;;;5158060;27;20058;-75
2023/08/26 01:44:18;;;;;;;9.07;5.88;;;15.80;99.90;;;;;;5158327;27;20046;-76
2023/08/26 01:46:44;;;;;;;8.82;6.03;;;15.80;99.90;;;;;;5157888;27;20121;-76
2023/08/26 01:49:10;;;;;;;8.40;6.38;;;15.70;99.90;;;;;;5157961;27;20433;-77
2023/08/26 01:51:36;;;;;;;8.88;6.07;;;15.60;99.90;;;;;;5157911;27;20080;-77
2023/08/26 01:54:05;;;;;;;10.32;6.30;;;15.60;99.90;;;;;;5139981;27;20047;-76
2023/08/26 01:56:30;;;;;;;8.82;6.38;;;15.50;99.90;;;;;;5157983;27;20049;-76
2023/08/26 01:58:56;;;;;;;10.77;5.85;;;15.40;99.90;;;;;;5157271;27;20054;-76
2023/08/26 02:01:22;;;;;;;10.15;6.13;;;15.40;99.90;;;;;;5157277;27;20470;-77
2023/08/26 02:03:47;;;;;;;9.60;6.28;;;15.40;99.90;;;;;;5157586;27;20082;-77
2023/08/26 02:06:13;;;;;;;8.35;6.25;;;15.40;99.90;;;;;;5157795;27;20046;-75
2023/08/26 02:08:39;;;;;;;9.43;5.50;;;15.30;99.90;;;;;;5157821;27;20042;-76
2023/08/26 02:11:04;;;;;;;9.57;6.03;;;15.30;99.90;;;;;;5153871;27;20513;-75
2023/08/26 02:13:30;;;;;;;10.75;5.82;;;15.20;99.90;;;;;;5118098;27;20043;-76
2023/08/26 02:15:56;;;;;;;10.73;6.15;;;15.20;99.90;;;;;;5136249;27;20036;-76
2023/08/26 02:18:22;;;;;;;9.50;5.90;;;15.10;99.90;;;;;;5136144;27;20039;-75
2023/08/26 02:20:48;;;;;;;9.98;5.95;;;15.00;99.90;;;;;;5136709;27;20576;-76
2023/08/26 02:23:14;;;;;;;9.82;6.20;;;15.00;99.90;;;;;;5136387;27;20043;-76
2023/08/26 02:25:41;;;;;;;10.07;6.65;;;14.90;99.90;;;;;;5136190;27;20082;-77
2023/08/26 02:28:07;;;;;;;9.82;6.30;;;15.00;99.90;;;;;;5117922;27;20081;-78
2023/08/26 02:30:33;;;;;;;10.35;6.60;;;14.90;99.90;;;;;;5135707;27;20047;-77
2023/08/26 02:32:59;;;;;;;9.02;6.40;;;14.90;99.90;;;;;;5136447;27;20051;-78
2023/08/26 02:35:25;;;;;;;9.48;6.03;;;14.90;99.90;;;;;;5136259;27;20103;-77
2023/08/26 02:37:51;;;;;;;10.38;6.03;;;14.90;99.90;;;;;;5142065;27;20046;-78
2023/08/26 02:40:17;;;;;;;10.45;6.05;;;14.90;99.90;;;;;;5157041;27;20410;-76
2023/08/26 02:42:43;;;;;;;11.63;5.93;;;14.90;99.90;;;;;;5157042;27;20046;-76
2023/08/26 02:45:09;;;;;;;7.68;5.72;;;14.90;99.90;;;;;;5157052;27;20043;-77
2023/08/26 02:47:35;;;;;;;9.52;5.95;;;14.90;99.90;;;;;;5156718;27;20375;-76
2023/08/26 02:50:01;;;;;;;9.07;6.13;;;14.90;99.90;;;;;;5156517;27;20310;-77
2023/08/26 02:52:27;;;;;;;9.85;5.68;;;14.90;99.90;;;;;;5156061;27;20100;-76
2023/08/26 02:54:53;;;;;;;8.68;6.57;;;14.90;99.90;;;;;;5156504;27;20034;-78
2023/08/26 02:57:19;;;;;;;8.27;5.65;;;14.90;99.90;;;;;;5156489;27;20083;-77
2023/08/26 02:59:46;;;;;;;10.38;5.78;;;14.90;99.90;;;;;;5138010;27;20065;-77
2023/08/26 03:02:11;;;;;;;9.88;5.93;;;14.90;99.90;;;;;;5138296;27;20054;-77
2023/08/26 03:04:37;;;;;;;8.48;5.75;;;14.90;99.90;;;;;;5156851;27;20497;-77
2023/08/26 03:07:03;;;;;;;8.15;6.00;;;14.90;99.90;;;;;;5145011;27;20042;-78
2023/08/26 03:09:29;;;;;;;9.15;5.35;;;14.90;99.90;;;;;;5135239;27;20085;-78
2023/08/26 03:11:58;;;;;;;8.27;5.53;;;14.90;99.90;;;;;;5135193;27;20053;-78
2023/08/26 03:14:24;;;;;;;11.65;6.10;;;14.90;99.90;;;;;;5135455;27;20134;-77
2023/08/26 03:16:50;;;;;;;8.23;6.25;;;15.00;99.90;;;;;;5135582;27;20075;-78
2023/08/26 03:19:16;;;;;;;7.90;5.40;;;15.00;99.90;;;;;;5135357;27;20095;-76
2023/08/26 03:21:42;;;;;;;9.23;6.43;;;15.00;99.90;;;;;;5135430;27;20054;-76
2023/08/26 03:24:09;;;;;;;8.20;5.53;;;15.00;99.90;;;;;;5117241;27;20051;-76
2023/08/26 03:26:35;;;;;;;8.93;5.60;;;15.00;99.90;;;;;;5134333;27;20039;-76
2023/08/26 03:29:02;;;;;;;7.93;5.15;;;15.00;99.90;;;;;;5134054;27;20380;-75
2023/08/26 03:31:28;;;;;;;9.70;5.28;;;15.00;99.90;;;;;;5133903;27;20134;-76
2023/08/26 03:33:54;;;;;;;10.27;6.28;;;15.00;99.90;;;;;;5134654;27;20126;-77
2023/08/26 03:36:20;;;;;;;10.27;6.30;;;15.00;99.90;;;;;;5135203;27;20395;-78
2023/08/26 03:38:45;;;;;;;12.50;5.95;;;14.90;99.90;;;;;;5148671;27;20046;-77
2023/08/26 03:41:12;;;;;;;12.15;6.60;;;15.00;99.90;;;;;;5155821;27;20502;-77
2023/08/26 03:43:38;;;;;;;9.98;6.20;;;15.00;99.90;;;;;;5155754;27;20039;-77
2023/08/26 03:46:04;;;;;;;9.30;5.78;;;15.00;99.90;;;;;;5155540;27;20436;-77
2023/08/26 03:48:30;;;;;;;9.20;6.60;;;14.90;99.90;;;;;;5155741;27;20042;-77
2023/08/26 03:50:57;;;;;;;11.88;6.57;;;14.90;99.90;;;;;;5155885;27;20049;-77
2023/08/26 03:53:23;;;;;;;8.63;6.00;;;14.80;99.90;;;;;;5155885;27;20455;-77
2023/08/26 03:55:49;;;;;;;11.73;6.35;;;14.80;99.90;;;;;;5155389;27;20470;-77
2023/08/26 03:58:15;;;;;;;8.45;5.68;;;14.70;99.90;;;;;;5155407;27;20102;-77
2023/08/26 04:00:41;;;;;;;9.05;5.93;;;14.70;99.90;;;;;;5155020;27;20043;-77
2023/08/26 04:03:07;;;;;;;9.23;6.03;;;14.70;99.90;;;;;;5155618;27;20100;-80
2023/08/26 04:05:33;;;;;;;11.40;6.53;;;14.70;99.90;;;;;;5154793;27;20555;-79
2023/08/26 04:08:03;;;;;;;9.30;5.22;;;14.60;99.90;;;;;;5154872;27;20466;-78
2023/08/26 04:10:29;;;;;;;10.18;6.13;;;14.50;99.90;;;;;;5155266;27;20057;-79
2023/08/26 04:13:00;;;;;;;7.88;5.65;;;14.40;99.90;;;;;;5155370;27;20038;-79
2023/08/26 04:15:26;;;;;;;8.48;5.57;;;14.40;99.90;;;;;;5155229;27;20039;-78
2023/08/26 04:17:52;;;;;;;7.28;4.97;;;14.40;99.90;;;;;;5140298;27;20096;-79
2023/08/26 04:20:18;;;;;;;9.45;5.38;;;14.30;99.90;;;;;;5134396;27;20047;-79
2023/08/26 04:22:43;;;;;;;9.35;5.00;;;14.40;99.90;;;;;;5133909;27;20043;-80
2023/08/26 04:25:09;;;;;;;7.68;4.75;;;14.40;99.90;;;;;;5134273;27;20060;-79
2023/08/26 04:27:35;;;;;;;9.20;4.65;;;14.40;99.90;;;;;;5134257;28;20482;-78
2023/08/26 04:30:01;;;;;;;8.98;5.95;;;14.50;99.90;;;;;;5133955;28;20407;-79
2023/08/26 04:32:27;;;;;;;9.50;5.80;;;14.60;99.90;;;;;;5134407;28;20047;-80
2023/08/26 04:34:52;;;;;;;9.20;5.88;;;14.60;99.90;;;;;;5134179;28;20369;-80
2023/08/26 04:37:22;;;;;;;9.52;6.70;;;14.70;99.90;;;;;;5134735;27;20100;-79
2023/08/26 04:39:50;;;;;;;12.38;7.18;;;14.70;99.90;;;;;;5154603;27;20049;-79
2023/08/26 04:42:15;;;;;;;9.48;7.03;;;14.80;99.90;;;;;;5154736;27;20054;-78
2023/08/26 04:44:41;;;;;;;10.18;6.97;;;14.80;99.90;;;;;;5154436;27;20050;-78
2023/08/26 04:47:07;;;;;;;9.10;6.68;;;14.80;99.90;;;;;;5154069;27;20035;-78
2023/08/26 04:49:32;;;;;;;10.85;6.57;;;14.80;99.90;;;;;;5154806;27;20042;-78
2023/08/26 04:51:59;;;;;;;11.18;6.35;;;14.90;99.90;;;;;;5154924;27;20039;-77
2023/08/26 04:54:25;;;;;;;10.00;6.80;;;14.90;99.90;;;;;;5155353;27;20127;-77
2023/08/26 04:56:50;;;;;;;9.38;7.05;;;14.90;99.90;;;;;;5136413;27;20522;-76
2023/08/26 04:59:16;;;;;;;10.10;6.50;;;14.90;99.90;;;;;;5155013;27;20050;-76
2023/08/26 05:01:42;;;;;;;8.75;6.45;;;14.90;99.90;;;;;;5154281;27;20070;-77
2023/08/26 05:04:08;;;;;;;10.38;7.50;;;15.00;99.90;;;;;;5154540;27;20471;-76
2023/08/26 05:06:34;;;;;;;9.80;6.70;;;15.00;99.90;;;;;;5154443;27;20043;-77
2023/08/26 05:08:59;;;;;;;9.38;6.63;;;15.00;99.90;;;;;;5154273;27;20747;-77
2023/08/26 05:11:25;;;;;;;11.20;6.70;;;15.00;99.90;;;;;;5154806;27;20050;-77
2023/08/26 05:13:51;;;;;;;9.27;6.57;;;15.00;99.90;;;;;;5154159;27;20058;-77
2023/08/26 05:16:17;;;;;;;9.05;6.80;;;15.00;99.90;;;;;;5153776;27;20052;-76
2023/08/26 05:18:42;;;;;;;10.32;6.97;;;15.00;99.90;;;;;;5133819;28;20384;-77
2023/08/26 05:21:08;;;;;;;11.85;6.80;;;15.00;99.90;;;;;;5133419;28;20073;-77
2023/08/26 05:23:34;;;;;;;11.18;7.40;;;15.00;99.90;;;;;;5133577;28;20039;-77
2023/08/26 05:25:59;;;;;;;11.30;6.40;;;15.00;99.90;;;;;;5134038;28;20486;-77
2023/08/26 05:28:25;;;;;;;11.32;6.88;;;15.00;99.90;;;;;;5115301;28;20059;-77
2023/08/26 05:30:51;;;;;;;11.43;7.10;;;15.10;99.90;;;;;;5133060;28;20127;-78
2023/08/26 05:33:16;;;;;;;10.90;7.68;;;15.10;99.90;;;;;;5134775;27;20043;-76
2023/08/26 05:35:43;;;;;;;10.85;6.93;;;15.10;99.90;;;;;;5137473;27;20126;-79
2023/08/26 05:38:08;;;;;;;9.23;7.13;;;15.10;99.90;;;;;;5127224;27;20053;-80
2023/08/26 05:40:34;;;;;;;9.77;7.07;;;15.10;99.90;;;;;;5139769;27;20042;-79
2023/08/26 05:43:00;;;;;;;8.85;6.72;;;15.20;99.90;;;;;;5157920;27;20367;-79
2023/08/26 05:45:26;;;;;;;9.27;6.95;;;15.20;99.90;;;;;;5161905;27;20043;-77
2023/08/26 05:47:52;;;;;;;10.25;6.38;;;15.20;99.90;;;;;;5143429;27;20046;-79
2023/08/26 05:50:18;;;;;;;10.48;7.10;;;15.20;99.90;;;;;;5139569;27;20039;-76
2023/08/26 05:52:44;;;;;;;11.95;7.03;;;15.30;99.90;;;;;;5157961;27;20051;-77
2023/08/26 05:55:10;;;;;;;8.48;6.40;;;15.30;99.90;;;;;;5157820;27;20482;-76
2023/08/26 05:57:37;;;;;;;9.88;6.75;;;15.30;99.90;;;;;;5139685;27;20054;-77
2023/08/26 06:00:06;;;;;;;10.35;6.63;;;15.30;99.90;;;;;;5157477;27;20095;-76
2023/08/26 06:02:31;;;;;;;11.80;6.38;;;15.30;99.90;;;;;;5157260;27;20042;-75
2023/08/26 06:04:58;;;;;;;8.32;6.75;;;15.30;99.90;;;;;;5157774;27;20360;-77
2023/08/26 06:07:23;;;;;;;8.75;6.65;;;15.30;99.90;;;;;;5157559;27;20076;-77
2023/08/26 06:09:49;;;;;;;11.45;7.20;;;15.30;99.90;;;;;;5157523;27;20047;-76
2023/08/26 06:12:15;;;;;;;9.15;6.88;;;15.40;99.90;;;;;;5157568;27;20047;-76
2023/08/26 06:14:40;;;;;;;9.93;7.28;;;15.40;99.90;;;;;;5157517;27;20119;-77
2023/08/26 06:17:06;;;;;;;10.40;7.00;;;15.40;99.90;;;;;;5149444;27;20042;-79
2023/08/26 06:19:32;;;;;;;10.55;7.65;;;15.50;99.90;;;;;;5136800;27;20043;-76
2023/08/26 06:21:57;;;;;;;9.80;7.40;;;15.50;99.90;;;;;;5136465;27;20093;-77
2023/08/26 06:24:23;;;;;;;12.68;8.15;;;15.50;99.90;;;;;;5136620;27;20095;-77
2023/08/26 06:26:49;;;;;;;11.40;8.68;;;15.40;99.90;;;;;;5136343;27;20051;-78
2023/08/26 06:29:16;;;;;;;11.75;8.68;;;15.40;99.90;;;;;;5137063;27;20511;-76
2023/08/26 06:31:42;;;;;;;12.48;8.77;;;15.40;99.90;;;;;;5117426;27;20039;-77
2023/08/26 06:34:08;;;;;;;12.75;8.68;;;15.40;99.90;;;;;;5136419;27;20043;-76
2023/08/26 06:36:34;;;;;;;12.60;8.18;;;15.40;99.90;;;;;;5136278;27;20062;-77
2023/08/26 06:38:59;;;;;;;11.20;9.18;;;15.40;99.90;;;;;;5151336;27;20043;-76
2023/08/26 06:41:25;;;;;;;13.13;8.77;;;15.40;99.90;;;;;;5156725;27;20482;-76
2023/08/26 06:43:51;;;;;;;13.27;9.23;;;15.40;99.90;;;;;;5156698;27;20099;-69
2023/08/26 06:46:16;;;;;;;13.07;8.50;;;15.40;99.90;;;;;;5156876;27;20483;-68
2023/08/26 06:48:42;;;;;;;15.45;8.00;;;15.40;99.90;;;;;;5156833;27;20052;-69
2023/08/26 06:51:08;;;;;;;12.32;9.02;;;15.40;99.90;;;;;;5156746;27;20038;-69
2023/08/26 06:53:33;;;;;;;11.07;8.55;;;15.40;99.90;;;;;;5157272;27;20496;-68
2023/08/26 06:55:59;;;;;;;12.98;8.23;;;15.40;99.90;;;;;;5138347;27;20360;-68
2023/08/26 06:58:25;;;;;;;11.07;8.38;;;15.40;99.90;;;;;;5156564;27;20134;-68
2023/08/26 07:00:52;;;;;;;13.43;9.35;;;15.40;99.90;;;;;;5156059;27;20375;-69
2023/08/26 07:03:18;;;;;;;13.43;10.02;;;15.40;99.90;;;;;;5156705;27;20051;-69
2023/08/26 07:05:46;;;;;;;14.18;10.98;;;15.40;99.90;;;;;;5156335;27;20049;-69
2023/08/26 07:08:15;;;;;;;15.52;10.35;;;15.50;99.90;;;;;;5156537;27;20415;-69
2023/08/26 07:10:40;;;;;;;15.07;11.27;;;15.50;99.90;;;;;;5156365;27;20046;-69
2023/08/26 07:13:06;;;;;;;14.88;10.90;;;15.50;99.90;;;;;;5138077;27;20122;-69
2023/08/26 07:15:32;;;;;;;16.25;11.32;;;15.50;99.90;;;;;;5154350;27;20088;-69
2023/08/26 07:17:58;;;;;;;15.77;10.77;;;15.50;99.90;;;;;;5135050;27;20043;-69
2023/08/26 07:20:24;;;;;;;16.67;10.95;;;15.50;99.90;;;;;;5135377;27;20051;-69
2023/08/26 07:22:50;;;;;;;20.52;10.05;;;15.50;99.90;;;;;;5135509;27;20047;-69
2023/08/26 07:25:17;;;;;;;14.85;10.10;;;15.50;99.90;;;;;;5135241;27;20046;-69
2023/08/26 07:27:43;;;;;;;17.27;9.68;;;15.50;99.90;;;;;;5135193;27;20065;-67
2023/08/26 07:30:09;;;;;;;14.20;9.60;;;15.50;99.90;;;;;;5141249;27;20049;-67
2023/08/26 07:32:35;;;;;;;12.63;9.43;;;15.50;99.90;;;;;;5153450;27;20051;-67
2023/08/26 07:35:01;;;;;;;12.18;9.95;;;15.40;99.90;;;;;;5127777;27;20471;-67
2023/08/26 07:37:29;;;;;;;15.23;10.95;;;15.40;99.90;;;;;;5144468;27;20514;-67
2023/08/26 07:39:55;;;;;;;14.48;12.07;;;15.40;99.90;;;;;;5147947;27;20047;-67
2023/08/26 07:42:21;;;;;;;15.52;11.30;;;15.40;99.90;;;;;;5155754;27;20049;-67
2023/08/26 07:44:46;;;;;;;14.35;11.77;;;15.40;99.90;;;;;;5155573;27;20046;-68
2023/08/26 07:47:12;;;;;;;14.23;11.10;;;15.40;99.90;;;;;;5155446;27;20103;-68
2023/08/26 07:49:38;;;;;;;15.63;11.88;;;15.30;99.90;;;;;;5155642;27;20043;-68
2023/08/26 07:52:04;;;;;;;14.98;11.20;;;15.30;99.90;;;;;;5155401;27;20544;-68
2023/08/26 07:54:29;;;;;;;15.85;10.73;;;15.30;99.90;;;;;;5148756;27;20439;-68
2023/08/26 07:56:55;;;;;;;15.98;12.25;;;15.20;99.90;;;;;;5153563;27;20046;-69
2023/08/26 07:59:20;;;;;;;15.55;11.35;;;15.20;99.90;;;;;;5138415;27;20487;-67
2023/08/26 08:01:47;;;;;;;15.98;12.32;;;15.10;99.90;;;;;;5140242;27;20103;-68
2023/08/26 08:04:13;;;;;;;16.20;12.20;;;15.10;99.90;;;;;;5135090;27;20547;-67
2023/08/26 08:06:39;;;;;;;13.50;11.68;;;15.10;99.90;;;;;;5118647;27;20153;-68
2023/08/26 08:09:05;;;;;;;16.23;11.90;;;15.10;99.90;;;;;;5138865;27;20074;-67
2023/08/26 08:11:30;;;;;;;14.27;12.13;;;15.10;99.90;;;;;;5140713;27;20046;-67
2023/08/26 08:13:56;;;;;;;15.13;10.60;;;15.10;99.90;;;;;;5139976;27;20482;-66
2023/08/26 08:16:22;;;;;;;14.25;11.20;;;15.10;99.90;;;;;;5153015;27;20046;-67
2023/08/26 08:18:47;;;;;;;16.05;11.63;;;15.10;99.90;;;;;;5115394;27;20132;-67
2023/08/26 08:21:13;;;;;;;14.02;10.43;;;15.20;99.90;;;;;;5133822;27;20039;-67
2023/08/26 08:23:41;;;;;;;14.10;10.48;;;15.30;99.90;;;;;;5133526;27;20049;-68
2023/08/26 08:26:07;;;;;;;15.32;11.27;;;15.40;99.90;;;;;;5133452;27;20047;-67
2023/08/26 08:28:32;;;;;;;15.77;10.73;;;15.50;99.90;;;;;;5132582;27;20134;-67
2023/08/26 08:30:58;;;;;;;15.48;11.80;;;15.70;99.90;;;;;;5132304;27;20046;-67
2023/08/26 08:33:24;;;;;;;14.98;10.93;;;15.80;99.90;;;;;;5141669;27;20051;-67
2023/08/26 08:35:50;;;;;;;16.33;10.77;;;15.90;99.90;;;;;;5133140;27;20047;-67
2023/08/26 08:38:16;;;;;;;14.30;10.90;;;16.10;99.90;;;;;;5141857;27;20058;-68
2023/08/26 08:40:42;;;;;;;12.18;10.20;;;16.20;99.90;;;;;;5135049;27;20039;-67
2023/08/26 08:43:08;;;;;;;13.32;9.57;;;16.30;99.90;;;;;;5133124;27;20138;-66
2023/08/26 08:45:35;;;;;;;12.90;10.20;;;16.40;99.90;;;;;;5132768;27;20391;-66
2023/08/26 08:48:01;;;;;;;11.77;8.27;;;16.60;99.90;;;;;;5132777;27;20096;-66
2023/08/26 08:50:27;;;;;;;10.88;8.60;;;16.60;99.90;;;;;;5132922;27;20039;-66
2023/08/26 08:52:58;;;;;;;12.60;9.27;;;16.60;99.90;;;;;;5132512;27;20043;-66
2023/08/26 08:55:24;;;;;;;10.63;8.50;;;16.50;99.90;;;;;;5132954;27;20099;-67
2023/08/26 08:57:52;;;;;;;15.60;9.05;;;16.50;99.90;;;;;;5132620;27;20042;-66
2023/08/26 09:00:19;;;;;;;14.23;9.65;;;16.60;99.90;;;;;;5132388;27;20107;-66
2023/08/26 09:02:46;;;;;;;10.27;9.18;;;16.90;99.90;;;;;;5114338;27;20560;-67
2023/08/26 09:05:13;;;;;;;11.65;8.57;;;17.10;99.90;;;;;;5132956;27;20047;-66
2023/08/26 09:07:40;;;;;;;10.45;8.10;;;17.20;99.90;;;;;;5132105;27;20046;-68
2023/08/26 09:10:08;;;;;;;10.85;9.10;;;17.30;99.90;;;;;;5136075;27;20043;-67
2023/08/26 09:12:34;;;;;;;10.63;8.35;;;17.40;99.90;;;;;;5136538;27;20061;-67
2023/08/26 09:15:00;;;;;;;13.35;8.40;;;17.40;99.90;;;;;;5118007;27;20050;-67
2023/08/26 09:17:25;;;;;;;10.00;8.45;;;17.40;99.90;;;;;;5122434;27;20043;-67
2023/08/26 09:19:56;;;;;;;10.50;8.02;;;17.30;99.90;;;;;;5136425;27;20429;-67
2023/08/26 09:22:26;;;;;;;10.73;8.20;;;17.40;99.90;;;;;;5136490;27;20403;-67
2023/08/26 09:25:00;;;;;;;10.63;8.18;;;17.50;99.90;;;;;;5136613;27;20047;-67
2023/08/26 09:27:26;;;;;;;9.55;7.50;;;17.50;99.90;;;;;;5136224;27;20035;-67
2023/08/26 09:29:52;;;;;;;10.73;7.95;;;17.60;99.90;;;;;;5136188;27;20051;-67
2023/08/26 09:32:36;;;;;;;13.13;8.27;;;17.50;99.90;;;;;;5143325;27;20356;-67
2023/08/26 09:35:09;;;;;;;11.35;8.02;;;17.50;99.90;;;;;;5136752;27;20050;-68
2023/08/26 09:37:34;;;;;;;9.10;7.70;;;17.70;99.90;;;;;;5120569;27;20047;-68
2023/08/26 09:40:00;;;;;;;9.80;8.05;;;18.00;99.90;;;;;;5147332;27;20061;-67
2023/08/26 09:42:26;;;;;;;9.10;6.95;;;18.10;99.90;;;;;;5136289;27;20497;-68
2023/08/26 09:44:56;;;;;;;8.20;6.82;;;18.20;99.90;;;;;;5135917;27;20051;-67
2023/08/26 09:47:26;;;;;;;8.00;6.75;;;18.20;99.90;;;;;;5135203;27;20128;-67
2023/08/26 09:49:52;;;;;;;8.13;6.45;;;18.20;99.90;;;;;;5136014;27;20369;-67
2023/08/26 09:52:19;;;;;;;9.82;6.60;;;18.20;99.90;;;;;;5135660;27;20068;-67
2023/08/26 09:54:46;;;;;;;8.45;6.10;;;18.10;99.90;;;;;;5136045;27;20540;-67
2023/08/26 09:57:12;;;;;;;9.77;6.93;;;18.10;99.90;;;;;;5135409;27;20054;-67
2023/08/26 09:59:38;;;;;;;7.25;6.32;;;18.20;99.90;;;;;;5135340;27;20039;-66
2023/08/26 10:02:21;;;;;;;5.97;5.20;;;18.50;99.90;;;;;;5117233;27;20483;-67
2023/08/26 10:04:54;;;;;;;5.90;5.05;;;18.80;99.90;;;;;;5117643;27;20047;-67
2023/08/26 10:07:27;;;;;;;7.50;4.95;;;18.80;99.90;;;;;;5134987;27;20047;-66
2023/08/26 10:10:16;;;;;;;6.63;4.05;;;18.70;99.90;;;;;;5117572;27;20441;-66
2023/08/26 10:12:44;;;;;;;7.05;4.38;;;18.80;99.90;;;;;;5135496;27;20491;-67
2023/08/26 10:15:16;;;;;;;6.70;4.00;;;19.10;99.90;;;;;;5135314;27;20142;-67
2023/08/26 10:17:44;;;;;;;4.88;3.60;;;19.20;99.90;;;;;;5143843;27;20065;-67
2023/08/26 10:20:11;;;;;;;5.68;3.75;;;19.20;99.90;;;;;;5135250;27;20043;-67
2023/08/26 10:22:38;;;;;;;5.53;3.90;;;19.20;99.90;;;;;;5135288;27;20407;-67
2023/08/26 10:25:05;;;;;;;5.75;3.25;;;19.30;99.90;;;;;;5135272;27;20075;-66
2023/08/26 10:27:32;;;;;;;4.20;2.97;;;19.40;99.90;;;;;;5134437;27;20088;-66
2023/08/26 10:29:59;;;;;;;5.63;3.30;;;19.30;99.90;;;;;;5135026;27;20122;-67
2023/08/26 10:32:27;;;;;;;6.70;3.00;;;19.30;99.90;;;;;;5124745;27;20058;-67
2023/08/26 10:34:54;;;;;;;3.55;2.30;;;19.40;99.90;;;;;;5142179;27;20062;-67
2023/08/26 10:37:24;;;;;;;3.03;1.90;;;19.60;99.90;;;;;;5135535;27;20048;-66
2023/08/26 10:39:49;;;;;;;2.70;1.58;;;19.70;99.90;;;;;;5100332;27;20047;-66
2023/08/26 10:42:17;;;;;;;4.25;1.85;;;19.90;99.90;;;;;;5116780;27;20129;-67
2023/08/26 10:44:55;;;;;;;3.60;1.75;;;20.00;99.90;;;;;;5134973;27;20108;-67
2023/08/26 10:47:52;;;;;;;3.25;1.50;;;20.20;99.90;;;;;;5134490;27;20479;-67
2023/08/26 10:50:26;;;;;;;4.63;1.70;;;20.30;99.90;;;;;;5139267;27;20483;-68
2023/08/26 10:52:53;;;;;;;4.70;1.90;;;20.40;99.90;;;;;;5134766;27;20081;-66
2023/08/26 10:55:23;;;;;;;3.90;1.42;;;20.30;99.90;;;;;;5135119;27;20058;-67
2023/08/26 10:58:10;;;;;;;3.60;1.70;;;20.30;99.90;;;;;;5134518;27;20070;-67
2023/08/26 11:00:43;;;;;;;3.65;1.50;;;20.40;99.90;;;;;;5134639;27;20051;-67
2023/08/26 11:03:11;;;;;;;4.60;1.80;;;20.40;99.90;;;;;;5134451;27;20413;-66
2023/08/26 11:05:42;;;;;;;3.72;1.77;;;20.40;99.90;;;;;;5133909;27;20111;-66
2023/08/26 11:08:08;;;;;;;4.40;2.13;;;20.20;99.90;;;;;;5134302;27;20047;-67
2023/08/26 11:10:36;;;;;;;4.47;1.80;;;20.10;99.90;;;;;;5134494;27;20096;-66
2023/08/26 11:13:03;;;;;;;6.22;2.25;;;19.90;99.90;;;;;;5134307;27;20059;-66
2023/08/26 11:15:34;;;;;;;4.68;2.10;;;19.60;99.90;;;;;;5134483;27;20047;-66
2023/08/26 11:18:00;;;;;;;3.95;1.60;;;19.40;99.90;;;;;;5145942;27;20433;-66
2023/08/26 11:20:28;;;;;;;5.25;2.20;;;19.30;99.90;;;;;;5134188;27;20122;-68
2023/08/26 11:22:54;;;;;;;2.42;1.65;;;19.30;99.90;;;;;;5116119;27;20081;-66
2023/08/26 11:25:20;;;;;;;2.20;1.10;;;19.50;99.90;;;;;;5136027;27;20074;-65
2023/08/26 11:27:46;;;;;;;2.03;1.10;;;19.50;99.90;;;;;;5141117;27;20051;-66
2023/08/26 11:30:12;;;;;;;2.72;1.30;;;19.50;99.90;;;;;;5144620;27;20051;-66
2023/08/26 11:32:39;;;;;;;3.13;1.08;;;19.40;99.90;;;;;;5134548;27;20055;-65
2023/08/26 11:35:06;;;;;;;3.70;1.63;;;19.40;99.90;;;;;;5133845;27;20050;-66
2023/08/26 11:37:38;;;;;;;3.67;1.35;;;19.60;99.90;;;;;;5136774;27;20038;-66
2023/08/26 11:40:05;;;;;;;2.53;1.20;;;19.70;99.90;;;;;;5116855;27;20050;-66
2023/08/26 11:42:31;;;;;;;4.15;1.80;;;19.50;99.90;;;;;;5133210;27;20077;-66
2023/08/26 11:44:56;;;;;;;3.20;1.20;;;19.30;99.90;;;;;;5115626;27;20035;-66
2023/08/26 11:47:24;;;;;;;3.47;1.35;;;19.10;99.90;;;;;;5133407;27;20088;-68
2023/08/26 11:49:53;;;;;;;3.72;1.20;;;19.10;99.90;;;;;;5114827;27;20124;-67
2023/08/26 11:52:19;;;;;;;2.97;1.58;;;19.10;99.90;;;;;;5133739;27;20047;-67
2023/08/26 11:54:51;;;;;;;2.78;1.20;;;19.30;99.90;;;;;;5133537;27;20047;-66
2023/08/26 11:57:18;;;;;;;3.38;1.20;;;19.70;99.90;;;;;;5132348;27;20120;-66
2023/08/26 11:59:44;;;;;;;2.08;0.98;;;19.90;99.90;;;;;;5133511;27;20043;-67
2023/08/26 12:02:24;;;;;;;2.75;1.02;;;19.80;99.90;;;;;;5132228;27;20051;-66
2023/08/26 12:04:59;;;;;;;1.50;0.82;;;19.80;99.90;;;;;;5141596;27;20051;-67
2023/08/26 12:07:26;;;;;;;1.45;0.80;;;19.90;99.90;;;;;;5131551;27;20135;-66
2023/08/26 12:09:52;;;;;;;2.55;1.00;;;20.00;99.90;;;;;;5132625;27;20403;-67
2023/08/26 12:12:22;;;;;;;2.03;0.90;;;20.30;99.90;;;;;;5133005;27;20053;-67
2023/08/26 12:14:48;;;;;;;2.10;0.80;;;20.40;99.90;;;;;;5114851;27;20047;-66
2023/08/26 12:17:15;;;;;;;2.22;1.00;;;20.40;99.90;;;;;;5142161;27;20239;-66
2023/08/26 12:19:41;;;;;;;1.40;0.80;;;20.50;99.90;;;;;;5135198;27;20570;-67
2023/08/26 12:22:08;;;;;;;2.92;0.90;;;20.50;99.90;;;;;;5133030;27;20426;-66
2023/08/26 12:24:37;;;;;;;2.97;0.90;;;20.50;99.90;;;;;;5133496;27;20039;-66
2023/08/26 12:27:08;;;;;;;2.85;0.80;;;20.70;99.90;;;;;;5114251;27;20467;-66
2023/08/26 12:29:34;;;;;;;1.73;0.88;;;20.60;99.90;;;;;;5133574;27;20059;-66
2023/08/26 12:32:00;;;;;;;2.80;1.00;;;20.40;99.90;;;;;;5135002;27;20051;-66
2023/08/26 12:34:26;;;;;;;2.28;0.70;;;20.50;99.90;;;;;;5132915;27;20527;-67
2023/08/26 12:36:51;;;;;;;3.58;0.90;;;20.60;99.90;;;;;;5133285;27;20035;-65
2023/08/26 12:39:17;;;;;;;2.53;0.80;;;21.00;99.90;;;;;;5119381;28;20100;-65